sensor_id;sensor_type;location;lat;lon;timestamp;temperature;humidity
63317;DHT22;49822;41.468;13.560;2022-12-29T00:01:05;8.40;91.00
63317;DHT22;49822;41.468;13.560;2022-12-29T00:03:33;8.50;90.40
63317;DHT22;49822;41.468;13.560;2022-12-29T00:06:01;8.50;89.70
63317;DHT22;49822;41.468;13.560;2022-12-29T00:08:30;8.60;89.10
63317;DHT22;49822;41.468;13.560;2022-12-29T00:11:13;8.60;88.70
63317;DHT22;49822;41.468;13.560;2022-12-29T00:13:42;8.60;87.60
63317;DHT22;49822;41.468;13.560;2022-12-29T00:16:29;8.60;88.40
63317;DHT22;49822;41.468;13.560;2022-12-29T00:18:57;8.60;87.40
63317;DHT22;49822;41.468;13.560;2022-12-29T00:21:26;8.60;87.60
63317;DHT22;49822;41.468;13.560;2022-12-29T00:24:18;8.50;86.40
63317;DHT22;49822;41.468;13.560;2022-12-29T00:29:49;8.40;87.50
63317;DHT22;49822;41.468;13.560;2022-12-29T00:32:36;8.30;87.00
63317;DHT22;49822;41.468;13.560;2022-12-29T00:35:28;8.00;87.00
63317;DHT22;49822;41.468;13.560;2022-12-29T00:38:00;8.00;89.10
63317;DHT22;49822;41.468;13.560;2022-12-29T00:40:48;8.20;90.30
63317;DHT22;49822;41.468;13.560;2022-12-29T00:43:34;8.40;90.10
63317;DHT22;49822;41.468;13.560;2022-12-29T00:46:20;8.00;88.50
63317;DHT22;49822;41.468;13.560;2022-12-29T00:48:48;7.90;90.40
63317;DHT22;49822;41.468;13.560;2022-12-29T00:51:34;7.80;91.10
63317;DHT22;49822;41.468;13.560;2022-12-29T00:54:02;7.80;92.00
63317;DHT22;49822;41.468;13.560;2022-12-29T00:56:29;8.00;92.90
63317;DHT22;49822;41.468;13.560;2022-12-29T00:59:07;8.00;92.10
63317;DHT22;49822;41.468;13.560;2022-12-29T01:01:35;8.10;92.00
63317;DHT22;49822;41.468;13.560;2022-12-29T01:04:04;8.30;91.50
63317;DHT22;49822;41.468;13.560;2022-12-29T01:06:33;8.30;90.70
63317;DHT22;49822;41.468;13.560;2022-12-29T01:09:02;8.40;89.80
63317;DHT22;49822;41.468;13.560;2022-12-29T01:11:49;8.10;87.50
63317;DHT22;49822;41.468;13.560;2022-12-29T01:14:17;8.00;88.10
63317;DHT22;49822;41.468;13.560;2022-12-29T01:16:45;8.00;88.80
63317;DHT22;49822;41.468;13.560;2022-12-29T01:19:14;7.90;88.00
63317;DHT22;49822;41.468;13.560;2022-12-29T01:21:45;7.90;88.40
63317;DHT22;49822;41.468;13.560;2022-12-29T01:24:14;8.00;89.80
63317;DHT22;49822;41.468;13.560;2022-12-29T01:26:43;8.10;90.30
63317;DHT22;49822;41.468;13.560;2022-12-29T01:29:11;8.20;89.70
63317;DHT22;49822;41.468;13.560;2022-12-29T01:31:38;8.20;88.80
63317;DHT22;49822;41.468;13.560;2022-12-29T01:34:08;8.20;87.50
63317;DHT22;49822;41.468;13.560;2022-12-29T01:36:37;8.20;87.20
63317;DHT22;49822;41.468;13.560;2022-12-29T01:39:05;8.20;86.40
63317;DHT22;49822;41.468;13.560;2022-12-29T01:41:33;8.20;86.50
63317;DHT22;49822;41.468;13.560;2022-12-29T01:44:01;8.10;85.00
63317;DHT22;49822;41.468;13.560;2022-12-29T01:46:36;7.50;84.00
63317;DHT22;49822;41.468;13.560;2022-12-29T01:51:48;6.90;87.50
63317;DHT22;49822;41.468;13.560;2022-12-29T01:56:56;6.60;90.80
63317;DHT22;49822;41.468;13.560;2022-12-29T01:59:29;6.40;91.70
63317;DHT22;49822;41.468;13.560;2022-12-29T02:01:57;6.70;93.90
63317;DHT22;49822;41.468;13.560;2022-12-29T02:04:27;7.20;94.70
63317;DHT22;49822;41.468;13.560;2022-12-29T02:07:07;7.20;93.30
63317;DHT22;49822;41.468;13.560;2022-12-29T02:09:35;7.20;92.70
63317;DHT22;49822;41.468;13.560;2022-12-29T02:12:04;7.40;92.70
63317;DHT22;49822;41.468;13.560;2022-12-29T02:14:32;7.50;91.30
63317;DHT22;49822;41.468;13.560;2022-12-29T02:17:24;7.20;89.60
63317;DHT22;49822;41.468;13.560;2022-12-29T02:20:15;7.20;89.50
63317;DHT22;49822;41.468;13.560;2022-12-29T02:31:51;7.20;89.00
63317;DHT22;49822;41.468;13.560;2022-12-29T02:40:37;7.60;91.90
63317;DHT22;49822;41.468;13.560;2022-12-29T02:42:51;7.80;92.10
63317;DHT22;49822;41.468;13.560;2022-12-29T02:45:42;7.90;90.80
63317;DHT22;49822;41.468;13.560;2022-12-29T02:48:20;7.70;88.40
63317;DHT22;49822;41.468;13.560;2022-12-29T02:51:13;7.50;87.60
63317;DHT22;49822;41.468;13.560;2022-12-29T02:53:43;7.50;89.30
63317;DHT22;49822;41.468;13.560;2022-12-29T02:56:30;7.50;89.20
63317;DHT22;49822;41.468;13.560;2022-12-29T02:58:57;7.50;88.30
63317;DHT22;49822;41.468;13.560;2022-12-29T03:08:04;6.80;87.30
63317;DHT22;49822;41.468;13.560;2022-12-29T03:10:59;5.90;90.00
63317;DHT22;49822;41.468;13.560;2022-12-29T03:13:34;5.80;93.00
63317;DHT22;49822;41.468;13.560;2022-12-29T03:16:45;6.20;94.30
63317;DHT22;49822;41.468;13.560;2022-12-29T03:19:24;6.50;94.20
63317;DHT22;49822;41.468;13.560;2022-12-29T03:22:22;6.60;93.50
63317;DHT22;49822;41.468;13.560;2022-12-29T03:25:15;6.40;91.20
63317;DHT22;49822;41.468;13.560;2022-12-29T03:29:10;5.90;91.10
63317;DHT22;49822;41.468;13.560;2022-12-29T03:31:19;5.80;93.60
63317;DHT22;49822;41.468;13.560;2022-12-29T03:33:49;5.90;95.10
63317;DHT22;49822;41.468;13.560;2022-12-29T03:37:26;6.10;95.80
63317;DHT22;49822;41.468;13.560;2022-12-29T03:39:23;6.40;96.30
63317;DHT22;49822;41.468;13.560;2022-12-29T03:41:58;6.60;96.00
63317;DHT22;49822;41.468;13.560;2022-12-29T03:44:36;6.20;94.20
63317;DHT22;49822;41.468;13.560;2022-12-29T03:47:05;6.30;94.30
63317;DHT22;49822;41.468;13.560;2022-12-29T03:49:33;6.40;94.10
63317;DHT22;49822;41.468;13.560;2022-12-29T03:52:03;6.50;94.00
63317;DHT22;49822;41.468;13.560;2022-12-29T03:54:36;6.70;93.90
63317;DHT22;49822;41.468;13.560;2022-12-29T03:57:05;6.70;92.20
63317;DHT22;49822;41.468;13.560;2022-12-29T03:59:44;6.60;91.70
63317;DHT22;49822;41.468;13.560;2022-12-29T04:02:12;6.80;91.80
63317;DHT22;49822;41.468;13.560;2022-12-29T04:04:41;6.80;91.00
63317;DHT22;49822;41.468;13.560;2022-12-29T04:07:09;6.90;90.80
63317;DHT22;49822;41.468;13.560;2022-12-29T04:09:36;6.90;89.90
63317;DHT22;49822;41.468;13.560;2022-12-29T04:12:04;7.00;89.40
63317;DHT22;49822;41.468;13.560;2022-12-29T04:14:34;6.90;88.60
63317;DHT22;49822;41.468;13.560;2022-12-29T04:17:02;7.00;88.40
63317;DHT22;49822;41.468;13.560;2022-12-29T04:19:30;6.70;86.20
63317;DHT22;49822;41.468;13.560;2022-12-29T04:21:58;6.60;88.00
63317;DHT22;49822;41.468;13.560;2022-12-29T04:24:27;6.60;89.00
63317;DHT22;49822;41.468;13.560;2022-12-29T04:26:55;6.70;89.40
63317;DHT22;49822;41.468;13.560;2022-12-29T04:30:01;6.80;89.50
63317;DHT22;49822;41.468;13.560;2022-12-29T04:32:46;6.80;89.20
63317;DHT22;49822;41.468;13.560;2022-12-29T04:35:13;6.90;89.40
63317;DHT22;49822;41.468;13.560;2022-12-29T04:37:41;7.00;89.00
63317;DHT22;49822;41.468;13.560;2022-12-29T04:40:09;7.00;88.20
63317;DHT22;49822;41.468;13.560;2022-12-29T04:42:38;6.60;87.30
63317;DHT22;49822;41.468;13.560;2022-12-29T04:45:07;6.50;88.70
63317;DHT22;49822;41.468;13.560;2022-12-29T04:47:55;6.50;89.10
63317;DHT22;49822;41.468;13.560;2022-12-29T04:50:46;6.60;89.10
63317;DHT22;49822;41.468;13.560;2022-12-29T04:53:17;6.70;89.30
63317;DHT22;49822;41.468;13.560;2022-12-29T04:55:49;6.60;88.40
63317;DHT22;49822;41.468;13.560;2022-12-29T04:58:19;6.40;89.20
63317;DHT22;49822;41.468;13.560;2022-12-29T05:00:52;6.50;90.20
63317;DHT22;49822;41.468;13.560;2022-12-29T05:03:25;6.70;90.80
63317;DHT22;49822;41.468;13.560;2022-12-29T05:05:55;6.80;90.50
63317;DHT22;49822;41.468;13.560;2022-12-29T05:08:23;6.90;89.30
63317;DHT22;49822;41.468;13.560;2022-12-29T05:10:57;6.60;86.50
63317;DHT22;49822;41.468;13.560;2022-12-29T05:13:25;6.60;87.30
63317;DHT22;49822;41.468;13.560;2022-12-29T05:15:54;6.70;87.50
63317;DHT22;49822;41.468;13.560;2022-12-29T05:18:24;6.70;87.50
63317;DHT22;49822;41.468;13.560;2022-12-29T05:20:51;6.80;87.60
63317;DHT22;49822;41.468;13.560;2022-12-29T05:23:20;6.60;86.20
63317;DHT22;49822;41.468;13.560;2022-12-29T05:25:55;6.40;87.60
63317;DHT22;49822;41.468;13.560;2022-12-29T05:28:35;6.50;88.60
63317;DHT22;49822;41.468;13.560;2022-12-29T05:31:10;6.70;88.90
63317;DHT22;49822;41.468;13.560;2022-12-29T05:33:38;6.70;88.40
63317;DHT22;49822;41.468;13.560;2022-12-29T05:36:07;6.70;87.20
63317;DHT22;49822;41.468;13.560;2022-12-29T05:38:39;6.50;85.70
63317;DHT22;49822;41.468;13.560;2022-12-29T05:41:07;6.20;86.90
63317;DHT22;49822;41.468;13.560;2022-12-29T05:44:00;6.20;88.10
63317;DHT22;49822;41.468;13.560;2022-12-29T05:46:28;6.30;89.30
63317;DHT22;49822;41.468;13.560;2022-12-29T05:49:09;6.50;89.50
63317;DHT22;49822;41.468;13.560;2022-12-29T05:51:51;6.50;88.70
63317;DHT22;49822;41.468;13.560;2022-12-29T05:54:19;6.40;88.00
63317;DHT22;49822;41.468;13.560;2022-12-29T05:56:49;6.40;87.60
63317;DHT22;49822;41.468;13.560;2022-12-29T05:59:17;6.30;86.00
63317;DHT22;49822;41.468;13.560;2022-12-29T06:01:45;6.00;85.00
63317;DHT22;49822;41.468;13.560;2022-12-29T06:04:12;5.70;86.60
63317;DHT22;49822;41.468;13.560;2022-12-29T06:06:40;5.80;88.80
63317;DHT22;49822;41.468;13.560;2022-12-29T06:09:15;6.00;89.60
63317;DHT22;49822;41.468;13.560;2022-12-29T06:11:43;6.30;89.80
63317;DHT22;49822;41.468;13.560;2022-12-29T06:14:11;6.40;89.10
63317;DHT22;49822;41.468;13.560;2022-12-29T06:16:38;6.40;86.80
63317;DHT22;49822;41.468;13.560;2022-12-29T06:19:09;6.20;85.30
63317;DHT22;49822;41.468;13.560;2022-12-29T06:21:37;5.80;85.40
63317;DHT22;49822;41.468;13.560;2022-12-29T06:24:05;5.60;87.90
63317;DHT22;49822;41.468;13.560;2022-12-29T06:26:35;5.40;89.40
63317;DHT22;49822;41.468;13.560;2022-12-29T06:29:04;5.40;91.40
63317;DHT22;49822;41.468;13.560;2022-12-29T06:31:32;5.60;92.60
63317;DHT22;49822;41.468;13.560;2022-12-29T06:34:01;5.90;93.30
63317;DHT22;49822;41.468;13.560;2022-12-29T06:36:35;6.10;93.20
63317;DHT22;49822;41.468;13.560;2022-12-29T06:39:04;6.10;92.20
63317;DHT22;49822;41.468;13.560;2022-12-29T06:41:33;6.20;91.90
63317;DHT22;49822;41.468;13.560;2022-12-29T06:44:20;6.30;91.60
63317;DHT22;49822;41.468;13.560;2022-12-29T06:46:50;6.50;91.10
63317;DHT22;49822;41.468;13.560;2022-12-29T06:49:18;6.50;90.60
63317;DHT22;49822;41.468;13.560;2022-12-29T06:51:46;6.60;90.10
63317;DHT22;49822;41.468;13.560;2022-12-29T06:54:14;6.50;88.60
63317;DHT22;49822;41.468;13.560;2022-12-29T06:56:43;6.30;88.20
63317;DHT22;49822;41.468;13.560;2022-12-29T06:59:10;6.30;88.60
63317;DHT22;49822;41.468;13.560;2022-12-29T07:01:38;6.50;88.90
63317;DHT22;49822;41.468;13.560;2022-12-29T07:04:06;6.70;89.00
63317;DHT22;49822;41.468;13.560;2022-12-29T07:06:34;6.70;86.80
63317;DHT22;49822;41.468;13.560;2022-12-29T07:09:01;6.40;87.50
63317;DHT22;49822;41.468;13.560;2022-12-29T07:11:29;6.50;88.60
63317;DHT22;49822;41.468;13.560;2022-12-29T07:13:56;6.80;88.20
63317;DHT22;49822;41.468;13.560;2022-12-29T07:16:31;6.80;87.50
63317;DHT22;49822;41.468;13.560;2022-12-29T07:18:59;6.80;87.60
63317;DHT22;49822;41.468;13.560;2022-12-29T07:21:28;6.90;87.70
63317;DHT22;49822;41.468;13.560;2022-12-29T07:23:56;7.00;87.60
63317;DHT22;49822;41.468;13.560;2022-12-29T07:26:23;7.20;87.00
63317;DHT22;49822;41.468;13.560;2022-12-29T07:28:56;7.20;86.80
63317;DHT22;49822;41.468;13.560;2022-12-29T07:31:24;7.20;85.70
63317;DHT22;49822;41.468;13.560;2022-12-29T07:33:52;7.10;85.70
63317;DHT22;49822;41.468;13.560;2022-12-29T07:36:20;7.20;86.60
63317;DHT22;49822;41.468;13.560;2022-12-29T07:38:48;7.00;87.00
63317;DHT22;49822;41.468;13.560;2022-12-29T07:41:15;7.10;87.50
63317;DHT22;49822;41.468;13.560;2022-12-29T07:43:47;7.10;88.40
63317;DHT22;49822;41.468;13.560;2022-12-29T07:46:42;7.20;89.30
63317;DHT22;49822;41.468;13.560;2022-12-29T07:49:23;7.40;88.30
63317;DHT22;49822;41.468;13.560;2022-12-29T07:51:50;7.40;88.20
63317;DHT22;49822;41.468;13.560;2022-12-29T07:54:20;7.40;88.20
63317;DHT22;49822;41.468;13.560;2022-12-29T07:56:47;7.50;88.50
63317;DHT22;49822;41.468;13.560;2022-12-29T07:59:15;7.60;88.50
63317;DHT22;49822;41.468;13.560;2022-12-29T08:01:43;7.70;88.20
63317;DHT22;49822;41.468;13.560;2022-12-29T08:04:10;7.70;88.10
63317;DHT22;49822;41.468;13.560;2022-12-29T08:06:38;7.80;88.20
63317;DHT22;49822;41.468;13.560;2022-12-29T08:09:05;7.80;87.40
63317;DHT22;49822;41.468;13.560;2022-12-29T08:11:45;7.60;87.90
63317;DHT22;49822;41.468;13.560;2022-12-29T08:14:13;7.60;88.00
63317;DHT22;49822;41.468;13.560;2022-12-29T08:16:41;7.40;87.30
63317;DHT22;49822;41.468;13.560;2022-12-29T08:19:11;7.20;89.00
63317;DHT22;49822;41.468;13.560;2022-12-29T08:21:39;7.50;90.50
63317;DHT22;49822;41.468;13.560;2022-12-29T08:24:07;7.60;90.20
63317;DHT22;49822;41.468;13.560;2022-12-29T08:26:35;7.80;90.50
63317;DHT22;49822;41.468;13.560;2022-12-29T08:29:03;8.00;89.80
63317;DHT22;49822;41.468;13.560;2022-12-29T08:31:30;8.00;89.30
63317;DHT22;49822;41.468;13.560;2022-12-29T08:33:59;8.20;88.90
63317;DHT22;49822;41.468;13.560;2022-12-29T08:36:27;8.40;88.10
63317;DHT22;49822;41.468;13.560;2022-12-29T08:38:55;8.60;87.90
63317;DHT22;49822;41.468;13.560;2022-12-29T08:41:22;8.90;86.80
63317;DHT22;49822;41.468;13.560;2022-12-29T08:43:51;9.00;86.20
63317;DHT22;49822;41.468;13.560;2022-12-29T08:46:19;9.10;86.20
63317;DHT22;49822;41.468;13.560;2022-12-29T08:48:47;9.20;85.50
63317;DHT22;49822;41.468;13.560;2022-12-29T08:51:15;9.40;85.30
63317;DHT22;49822;41.468;13.560;2022-12-29T08:53:50;9.40;84.70
63317;DHT22;49822;41.468;13.560;2022-12-29T08:56:20;9.20;83.00
63317;DHT22;49822;41.468;13.560;2022-12-29T08:58:53;9.20;83.50
63317;DHT22;49822;41.468;13.560;2022-12-29T09:01:22;9.40;83.70
63317;DHT22;49822;41.468;13.560;2022-12-29T09:03:56;9.40;84.20
63317;DHT22;49822;41.468;13.560;2022-12-29T09:06:42;9.40;84.70
63317;DHT22;49822;41.468;13.560;2022-12-29T09:09:10;9.40;85.40
63317;DHT22;49822;41.468;13.560;2022-12-29T09:11:38;9.40;85.70
63317;DHT22;49822;41.468;13.560;2022-12-29T09:14:06;9.60;85.70
63317;DHT22;49822;41.468;13.560;2022-12-29T09:16:34;9.60;85.00
63317;DHT22;49822;41.468;13.560;2022-12-29T09:19:02;9.60;85.30
63317;DHT22;49822;41.468;13.560;2022-12-29T09:21:30;9.60;85.50
63317;DHT22;49822;41.468;13.560;2022-12-29T09:23:59;9.60;85.50
63317;DHT22;49822;41.468;13.560;2022-12-29T09:26:27;9.60;85.80
63317;DHT22;49822;41.468;13.560;2022-12-29T09:36:20;9.60;87.50
63317;DHT22;49822;41.468;13.560;2022-12-29T09:38:48;9.60;87.40
63317;DHT22;49822;41.468;13.560;2022-12-29T09:41:32;9.50;88.20
63317;DHT22;49822;41.468;13.560;2022-12-29T09:46:58;9.50;88.50
63317;DHT22;49822;41.468;13.560;2022-12-29T10:05:46;9.20;91.40
63317;DHT22;49822;41.468;13.560;2022-12-29T10:08:37;9.40;91.10
63317;DHT22;49822;41.468;13.560;2022-12-29T10:14:02;9.20;90.00
63317;DHT22;49822;41.468;13.560;2022-12-29T10:22:48;9.30;91.80
63317;DHT22;49822;41.468;13.560;2022-12-29T10:25:23;9.40;91.20
63317;DHT22;49822;41.468;13.560;2022-12-29T10:28:00;9.40;90.60
63317;DHT22;49822;41.468;13.560;2022-12-29T10:30:29;9.40;90.60
63317;DHT22;49822;41.468;13.560;2022-12-29T10:33:02;9.40;90.40
63317;DHT22;49822;41.468;13.560;2022-12-29T10:35:35;9.40;90.90
63317;DHT22;49822;41.468;13.560;2022-12-29T10:41:24;9.60;90.00
63317;DHT22;49822;41.468;13.560;2022-12-29T10:43:54;9.50;90.10
63317;DHT22;49822;41.468;13.560;2022-12-29T10:46:33;9.30;90.00
63317;DHT22;49822;41.468;13.560;2022-12-29T10:49:04;9.00;91.80
63317;DHT22;49822;41.468;13.560;2022-12-29T10:51:35;9.20;92.70
63317;DHT22;49822;41.468;13.560;2022-12-29T10:57:16;9.60;91.90
63317;DHT22;49822;41.468;13.560;2022-12-29T10:59:47;9.50;91.50
63317;DHT22;49822;41.468;13.560;2022-12-29T11:07:20;9.70;91.40
63317;DHT22;49822;41.468;13.560;2022-12-29T11:09:53;10.00;90.80
63317;DHT22;49822;41.468;13.560;2022-12-29T11:12:25;9.90;89.70
63317;DHT22;49822;41.468;13.560;2022-12-29T11:15:13;9.80;90.00
63317;DHT22;49822;41.468;13.560;2022-12-29T11:17:48;10.00;89.80
63317;DHT22;49822;41.468;13.560;2022-12-29T11:22:52;10.20;89.10
63317;DHT22;49822;41.468;13.560;2022-12-29T11:25:20;10.40;88.30
63317;DHT22;49822;41.468;13.560;2022-12-29T11:28:02;10.50;87.80
63317;DHT22;49822;41.468;13.560;2022-12-29T11:30:31;10.50;88.00
63317;DHT22;49822;41.468;13.560;2022-12-29T11:33:03;10.60;87.80
63317;DHT22;49822;41.468;13.560;2022-12-29T11:35:39;10.70;88.50
63317;DHT22;49822;41.468;13.560;2022-12-29T11:38:34;10.70;86.70
63317;DHT22;49822;41.468;13.560;2022-12-29T11:41:02;10.50;87.20
63317;DHT22;49822;41.468;13.560;2022-12-29T11:43:33;10.70;87.50
63317;DHT22;49822;41.468;13.560;2022-12-29T11:46:01;11.00;87.50
63317;DHT22;49822;41.468;13.560;2022-12-29T11:48:38;11.20;86.30
63317;DHT22;49822;41.468;13.560;2022-12-29T11:51:08;11.30;84.90
63317;DHT22;49822;41.468;13.560;2022-12-29T11:56:14;11.30;83.60
63317;DHT22;49822;41.468;13.560;2022-12-29T11:58:43;11.10;84.70
63317;DHT22;49822;41.468;13.560;2022-12-29T12:01:34;11.20;85.90
63317;DHT22;49822;41.468;13.560;2022-12-29T12:04:10;11.30;83.90
63317;DHT22;49822;41.468;13.560;2022-12-29T12:07:01;11.30;84.00
63317;DHT22;49822;41.468;13.560;2022-12-29T12:09:32;11.50;84.10
63317;DHT22;49822;41.468;13.560;2022-12-29T12:12:06;11.60;84.40
63317;DHT22;49822;41.468;13.560;2022-12-29T12:14:43;12.10;83.20
63317;DHT22;49822;41.468;13.560;2022-12-29T12:17:37;12.50;81.00
63317;DHT22;49822;41.468;13.560;2022-12-29T12:25:24;13.10;78.70
63317;DHT22;49822;41.468;13.560;2022-12-29T12:30:36;12.40;79.80
63317;DHT22;49822;41.468;13.560;2022-12-29T12:33:18;12.50;80.30
63317;DHT22;49822;41.468;13.560;2022-12-29T12:39:21;12.90;78.40
63317;DHT22;49822;41.468;13.560;2022-12-29T12:50:38;13.60;74.40
63317;DHT22;49822;41.468;13.560;2022-12-29T13:10:18;14.80;70.90
63317;DHT22;49822;41.468;13.560;2022-12-29T13:13:13;14.00;71.30
63317;DHT22;49822;41.468;13.560;2022-12-29T13:31:45;13.90;75.40
63317;DHT22;49822;41.468;13.560;2022-12-29T13:33:53;14.10;72.30
63317;DHT22;49822;41.468;13.560;2022-12-29T13:39:34;14.60;71.60
63317;DHT22;49822;41.468;13.560;2022-12-29T13:42:04;15.50;68.60
63317;DHT22;49822;41.468;13.560;2022-12-29T13:44:45;16.10;65.70
63317;DHT22;49822;41.468;13.560;2022-12-29T13:49:55;17.50;62.20
63317;DHT22;49822;41.468;13.560;2022-12-29T13:55:44;18.20;59.30
63317;DHT22;49822;41.468;13.560;2022-12-29T14:03:52;17.20;59.60
63317;DHT22;49822;41.468;13.560;2022-12-29T14:09:04;15.60;65.30
63317;DHT22;49822;41.468;13.560;2022-12-29T14:11:37;15.30;66.90
63317;DHT22;49822;41.468;13.560;2022-12-29T14:14:18;15.40;66.90
63317;DHT22;49822;41.468;13.560;2022-12-29T14:16:48;15.40;67.20
63317;DHT22;49822;41.468;13.560;2022-12-29T14:22:02;15.30;67.90
63317;DHT22;49822;41.468;13.560;2022-12-29T14:27:51;15.20;69.30
63317;DHT22;49822;41.468;13.560;2022-12-29T14:33:33;16.60;64.90
63317;DHT22;49822;41.468;13.560;2022-12-29T14:36:33;16.40;63.60
63317;DHT22;49822;41.468;13.560;2022-12-29T14:39:01;16.30;64.20
63317;DHT22;49822;41.468;13.560;2022-12-29T14:41:36;16.20;64.60
63317;DHT22;49822;41.468;13.560;2022-12-29T14:49:27;16.00;64.60
63317;DHT22;49822;41.468;13.560;2022-12-29T14:52:20;15.30;68.50
63317;DHT22;49822;41.468;13.560;2022-12-29T14:54:53;15.20;68.10
63317;DHT22;49822;41.468;13.560;2022-12-29T14:57:27;14.00;71.10
63317;DHT22;49822;41.468;13.560;2022-12-29T15:00:04;13.60;74.00
63317;DHT22;49822;41.468;13.560;2022-12-29T15:02:39;13.60;74.40
63317;DHT22;49822;41.468;13.560;2022-12-29T15:05:33;13.50;74.70
63317;DHT22;49822;41.468;13.560;2022-12-29T15:08:03;13.40;75.50
63317;DHT22;49822;41.468;13.560;2022-12-29T15:11:23;13.00;76.00
63317;DHT22;49822;41.468;13.560;2022-12-29T15:13:33;12.70;78.40
63317;DHT22;49822;41.468;13.560;2022-12-29T15:16:03;12.60;78.70
63317;DHT22;49822;41.468;13.560;2022-12-29T15:18:34;12.30;78.90
63317;DHT22;49822;41.468;13.560;2022-12-29T15:21:13;11.80;80.80
63317;DHT22;49822;41.468;13.560;2022-12-29T15:23:43;11.70;82.70
63317;DHT22;49822;41.468;13.560;2022-12-29T15:26:11;11.50;83.30
63317;DHT22;49822;41.468;13.560;2022-12-29T15:28:45;11.40;84.20
63317;DHT22;49822;41.468;13.560;2022-12-29T15:31:24;11.50;84.20
63317;DHT22;49822;41.468;13.560;2022-12-29T15:34:10;11.50;84.00
63317;DHT22;49822;41.468;13.560;2022-12-29T15:36:41;11.70;83.50
63317;DHT22;49822;41.468;13.560;2022-12-29T15:39:27;11.70;83.00
63317;DHT22;49822;41.468;13.560;2022-12-29T15:41:59;11.40;82.50
63317;DHT22;49822;41.468;13.560;2022-12-29T15:44:40;10.80;83.50
63317;DHT22;49822;41.468;13.560;2022-12-29T15:47:18;10.30;85.60
63317;DHT22;49822;41.468;13.560;2022-12-29T15:50:02;10.30;86.80
63317;DHT22;49822;41.468;13.560;2022-12-29T15:52:33;9.90;87.60
63317;DHT22;49822;41.468;13.560;2022-12-29T15:55:01;9.70;89.40
63317;DHT22;49822;41.468;13.560;2022-12-29T15:57:37;9.90;90.00
63317;DHT22;49822;41.468;13.560;2022-12-29T16:00:23;10.00;89.30
63317;DHT22;49822;41.468;13.560;2022-12-29T16:02:54;10.10;89.20
63317;DHT22;49822;41.468;13.560;2022-12-29T16:05:23;10.20;88.30
63317;DHT22;49822;41.468;13.560;2022-12-29T16:07:53;10.00;87.70
63317;DHT22;49822;41.468;13.560;2022-12-29T16:10:32;9.60;87.60
63317;DHT22;49822;41.468;13.560;2022-12-29T16:13:23;9.40;89.30
63317;DHT22;49822;41.468;13.560;2022-12-29T16:16:01;9.50;90.80
63317;DHT22;49822;41.468;13.560;2022-12-29T16:22:09;9.80;90.90
63317;DHT22;49822;41.468;13.560;2022-12-29T16:24:39;10.00;89.50
63317;DHT22;49822;41.468;13.560;2022-12-29T16:27:14;9.80;87.60
63317;DHT22;49822;41.468;13.560;2022-12-29T16:29:44;9.50;88.10
63317;DHT22;49822;41.468;13.560;2022-12-29T16:32:30;9.70;89.00
63317;DHT22;49822;41.468;13.560;2022-12-29T16:35:27;9.80;88.50
63317;DHT22;49822;41.468;13.560;2022-12-29T16:38:12;9.40;85.90
63317;DHT22;49822;41.468;13.560;2022-12-29T16:40:53;9.20;89.00
63317;DHT22;49822;41.468;13.560;2022-12-29T16:43:25;9.40;90.00
63317;DHT22;49822;41.468;13.560;2022-12-29T16:48:29;9.20;90.60
63317;DHT22;49822;41.468;13.560;2022-12-29T16:51:46;9.40;90.10
63317;DHT22;49822;41.468;13.560;2022-12-29T16:53:55;9.40;89.40
63317;DHT22;49822;41.468;13.560;2022-12-29T16:56:26;9.40;88.40
63317;DHT22;49822;41.468;13.560;2022-12-29T16:59:07;9.50;88.40
63317;DHT22;49822;41.468;13.560;2022-12-29T17:01:37;9.50;88.00
63317;DHT22;49822;41.468;13.560;2022-12-29T17:04:09;9.60;87.80
63317;DHT22;49822;41.468;13.560;2022-12-29T17:06:37;9.50;86.30
63317;DHT22;49822;41.468;13.560;2022-12-29T17:09:28;9.50;87.50
63317;DHT22;49822;41.468;13.560;2022-12-29T17:11:58;9.00;86.10
63317;DHT22;49822;41.468;13.560;2022-12-29T17:14:51;8.60;88.80
63317;DHT22;49822;41.468;13.560;2022-12-29T17:17:33;8.80;92.20
63317;DHT22;49822;41.468;13.560;2022-12-29T17:20:25;8.60;92.40
63317;DHT22;49822;41.468;13.560;2022-12-29T17:22:54;9.00;94.40
63317;DHT22;49822;41.468;13.560;2022-12-29T17:25:32;9.00;92.90
63317;DHT22;49822;41.468;13.560;2022-12-29T17:28:22;9.00;93.70
63317;DHT22;49822;41.468;13.560;2022-12-29T17:31:04;8.90;92.10
63317;DHT22;49822;41.468;13.560;2022-12-29T17:33:36;8.70;92.40
63317;DHT22;49822;41.468;13.560;2022-12-29T17:36:05;8.70;93.00
63317;DHT22;49822;41.468;13.560;2022-12-29T17:38:35;8.90;93.60
63317;DHT22;49822;41.468;13.560;2022-12-29T17:41:07;8.90;93.00
63317;DHT22;49822;41.468;13.560;2022-12-29T17:43:37;9.00;92.80
63317;DHT22;49822;41.468;13.560;2022-12-29T17:46:06;9.10;93.00
63317;DHT22;49822;41.468;13.560;2022-12-29T17:48:36;9.20;92.40
63317;DHT22;49822;41.468;13.560;2022-12-29T17:51:07;8.90;89.80
63317;DHT22;49822;41.468;13.560;2022-12-29T17:53:35;8.40;90.10
63317;DHT22;49822;41.468;13.560;2022-12-29T17:56:03;8.40;92.90
63317;DHT22;49822;41.468;13.560;2022-12-29T17:58:32;8.60;93.80
63317;DHT22;49822;41.468;13.560;2022-12-29T18:01:03;8.40;92.60
63317;DHT22;49822;41.468;13.560;2022-12-29T18:03:35;8.50;94.00
63317;DHT22;49822;41.468;13.560;2022-12-29T18:06:05;8.70;94.50
63317;DHT22;49822;41.468;13.560;2022-12-29T18:08:35;8.90;94.90
63317;DHT22;49822;41.468;13.560;2022-12-29T18:11:24;9.20;95.30
63317;DHT22;49822;41.468;13.560;2022-12-29T18:13:52;9.20;93.40
63317;DHT22;49822;41.468;13.560;2022-12-29T18:16:22;9.20;92.90
63317;DHT22;49822;41.468;13.560;2022-12-29T18:18:49;9.00;92.00
63317;DHT22;49822;41.468;13.560;2022-12-29T18:21:19;8.60;90.10
63317;DHT22;49822;41.468;13.560;2022-12-29T18:23:47;8.60;91.70
63317;DHT22;49822;41.468;13.560;2022-12-29T18:26:23;8.90;92.80
63317;DHT22;49822;41.468;13.560;2022-12-29T18:28:55;8.90;92.10
63317;DHT22;49822;41.468;13.560;2022-12-29T18:33:52;8.60;89.40
63317;DHT22;49822;41.468;13.560;2022-12-29T18:36:20;8.30;90.40
63317;DHT22;49822;41.468;13.560;2022-12-29T18:38:49;8.20;91.80
63317;DHT22;49822;41.468;13.560;2022-12-29T18:41:24;8.10;92.20
63317;DHT22;49822;41.468;13.560;2022-12-29T18:43:52;8.10;92.90
63317;DHT22;49822;41.468;13.560;2022-12-29T18:46:19;8.20;93.30
63317;DHT22;49822;41.468;13.560;2022-12-29T18:48:50;8.20;93.50
63317;DHT22;49822;41.468;13.560;2022-12-29T18:51:21;8.40;93.60
63317;DHT22;49822;41.468;13.560;2022-12-29T18:53:49;8.50;93.40
63317;DHT22;49822;41.468;13.560;2022-12-29T18:56:22;8.60;93.00
63317;DHT22;49822;41.468;13.560;2022-12-29T18:58:50;8.50;91.30
63317;DHT22;49822;41.468;13.560;2022-12-29T19:01:22;8.30;90.00
63317;DHT22;49822;41.468;13.560;2022-12-29T19:03:50;7.50;86.80